New Century 1 — H9LA — position and weather

sailwx.info

Track history (hours):
 
Tides and Currents Weather Stations Pressure Air Temp Water Temp Dewpoint Dewpoint Depression Visibility Wind Speed Wind Dir Waves Ship Positions

New Century 1

Last reported at 2014-Aug-17 18:00 UTC. Time now 2014-Aug-20 04:56 UTC.
Position N 28°36' W 072°06'.

Length 200 m; beam 32.3 m.

Type: Cargo ship. MMSI: 355234000.

Wind from 250 at 18 knots

Waves 1.0 meters (3 feet), 2 second period

Barometer 1020.5 mb
Air temperature 32.0 ° C
Visibility: greater than 5.4 NM
Dewpoint 26.7 ° C
Water temperature 28.0 ° C

Date/timePositionNaut miles runAvg speedWind from/ knotsBaromVisibWave heightAir tempDewpointWater temp
2014-Aug-17 18:00N 28°36' W 072°06'56216.8 250 / 181020.5 5.4 1.032.026.728.0
2014-Aug-16 08:33N 37°58' W 071°39'1817.9
2014-Aug-16 07:33N 38°13' W 071°51'1817.9
2014-Aug-16 06:34N 38°27' W 072°04'1818.2
2014-Aug-16 05:34N 38°43' W 072°16'1918.2
2014-Aug-16 04:32N 38°58' W 072°29'1818.1
2014-Aug-16 03:33N 39°13' W 072°42'1818.2
2014-Aug-16 02:33N 39°28' W 072°55'1818.1
2014-Aug-16 01:33N 39°44' W 073°07'1918.1
2014-Aug-16 00:32N 39°59' W 073°20'1918.4
2014-Aug-15 23:29N 40°14' W 073°36'1516.3
2014-Aug-15 22:33N 40°26' W 073°49'1515.4
2014-Aug-15 21:33N 40°37' W 074°03'5 5.3
2014-Aug-15 20:33N 40°40' W 074°08'1 1.2
2014-Aug-15 19:28N 40°41' W 074°08'0 0.0
2014-Aug-15 18:28N 40°41' W 074°08'0 0.0
2014-Aug-15 17:28N 40°41' W 074°08'0 0.0
2014-Aug-15 16:31N 40°41' W 074°08'0 0.0
2014-Aug-15 15:28N 40°41' W 074°08'0 0.0
2014-Aug-15 14:28N 40°41' W 074°08'0 0.0
2014-Aug-15 13:28N 40°41' W 074°08'0 0.0
2014-Aug-15 12:31N 40°41' W 074°08'0 0.0
2014-Aug-15 11:31N 40°41' W 074°08'0 0.0
2014-Aug-15 10:28N 40°41' W 074°08'0 0.0
2014-Aug-15 09:31N 40°41' W 074°08'0 0.0
2014-Aug-15 08:31N 40°41' W 074°08'0 0.0
2014-Aug-15 07:31N 40°41' W 074°08'0 0.0
2014-Aug-15 06:28N 40°41' W 074°08'0 0.0
2014-Aug-15 05:31N 40°41' W 074°08'0 0.0
2014-Aug-15 04:31N 40°41' W 074°08'0 0.0
2014-Aug-15 03:28N 40°41' W 074°08'0 0.0
2014-Aug-15 02:31N 40°41' W 074°08'0 0.0
2014-Aug-15 01:28N 40°41' W 074°08'0 0.0
2014-Aug-15 00:31N 40°41' W 074°08'0 0.0
2014-Aug-14 23:33N 40°41' W 074°08'5 4.8
2014-Aug-14 22:33N 40°38' W 074°03'1110.9
2014-Aug-14 21:33N 40°29' W 073°55'10 9.5
2014-Aug-14 20:32N 40°22' W 073°47'1411.9
2014-Aug-14 19:21N 40°08' W 073°44'1012.0
2014-Aug-14 18:30N 39°58' W 073°41'4 4.7
2014-Aug-14 17:33N 39°54' W 073°39'3 3.1
2014-Aug-14 16:33N 39°51' W 073°40'1616.4
2014-Aug-14 15:33N 39°35' W 073°43'2316.3
2014-Aug-14 14:09N 39°12' W 073°47'1016.0
2014-Aug-14 13:30N 39°02' W 073°49'1615.7
2014-Aug-14 12:30N 38°46' W 073°51'1515.5
2014-Aug-14 11:32N 38°31' W 073°54'9216.5
2014-Aug-14 06:00N 37°00' W 074°06'   320 / 251018.0 5.4 26.018.721.0
2014-Aug-10 06:00N 23°36' W 074°36'38716.1 090 / 171018.0 5.4 0.528.023.925.0
2014-Aug-09 06:00N 17°12' W 075°30'18415.3 090 / 261014.8 5.4 1.528.025.326.0
2014-Aug-08 18:00N 14°30' W 077°00'   090 / 281013.2 5.4 1.530.026.028.0
Track history (hours):
 
Tides and Currents Weather Stations Pressure Air Temp Water Temp Dewpoint Dewpoint Depression Visibility Wind Speed Wind Dir Waves Ship Positions

New Century 1

Last reported at 2014-Aug-17 18:00 UTC. Time now 2014-Aug-20 04:56 UTC.
Position N 28°36' W 072°06'.

Length 200 m; beam 32.3 m.

Type: Cargo ship. MMSI: 355234000.

Wind from 250 at 18 knots

Waves 1.0 meters (3 feet), 2 second period

Barometer 1020.5 mb
Air temperature 32.0 ° C
Visibility: greater than 5.4 NM
Dewpoint 26.7 ° C
Water temperature 28.0 ° C

Date/timePositionNaut miles runAvg speedWind from/ knotsBaromVisibWave heightAir tempDewpointWater temp
2014-Aug-17 18:00N 28°36' W 072°06'56216.8 250 / 181020.5 5.4 1.032.026.728.0
2014-Aug-16 08:33N 37°58' W 071°39'1817.9
2014-Aug-16 07:33N 38°13' W 071°51'1817.9
2014-Aug-16 06:34N 38°27' W 072°04'1818.2
2014-Aug-16 05:34N 38°43' W 072°16'1918.2
2014-Aug-16 04:32N 38°58' W 072°29'1818.1
2014-Aug-16 03:33N 39°13' W 072°42'1818.2
2014-Aug-16 02:33N 39°28' W 072°55'1818.1
2014-Aug-16 01:33N 39°44' W 073°07'1918.1
2014-Aug-16 00:32N 39°59' W 073°20'1918.4
2014-Aug-15 23:29N 40°14' W 073°36'1516.3
2014-Aug-15 22:33N 40°26' W 073°49'1515.4
2014-Aug-15 21:33N 40°37' W 074°03'5 5.3
2014-Aug-15 20:33N 40°40' W 074°08'1 1.2
2014-Aug-15 19:28N 40°41' W 074°08'0 0.0
2014-Aug-15 18:28N 40°41' W 074°08'0 0.0
2014-Aug-15 17:28N 40°41' W 074°08'0 0.0
2014-Aug-15 16:31N 40°41' W 074°08'0 0.0
2014-Aug-15 15:28N 40°41' W 074°08'0 0.0
2014-Aug-15 14:28N 40°41' W 074°08'0 0.0
2014-Aug-15 13:28N 40°41' W 074°08'0 0.0
2014-Aug-15 12:31N 40°41' W 074°08'0 0.0
2014-Aug-15 11:31N 40°41' W 074°08'0 0.0
2014-Aug-15 10:28N 40°41' W 074°08'0 0.0
2014-Aug-15 09:31N 40°41' W 074°08'0 0.0
2014-Aug-15 08:31N 40°41' W 074°08'0 0.0
2014-Aug-15 07:31N 40°41' W 074°08'0 0.0
2014-Aug-15 06:28N 40°41' W 074°08'0 0.0
2014-Aug-15 05:31N 40°41' W 074°08'0 0.0
2014-Aug-15 04:31N 40°41' W 074°08'0 0.0
2014-Aug-15 03:28N 40°41' W 074°08'0 0.0
2014-Aug-15 02:31N 40°41' W 074°08'0 0.0
2014-Aug-15 01:28N 40°41' W 074°08'0 0.0
2014-Aug-15 00:31N 40°41' W 074°08'0 0.0
2014-Aug-14 23:33N 40°41' W 074°08'5 4.8
2014-Aug-14 22:33N 40°38' W 074°03'1110.9
2014-Aug-14 21:33N 40°29' W 073°55'10 9.5
2014-Aug-14 20:32N 40°22' W 073°47'1411.9
2014-Aug-14 19:21N 40°08' W 073°44'1012.0
2014-Aug-14 18:30N 39°58' W 073°41'4 4.7
2014-Aug-14 17:33N 39°54' W 073°39'3 3.1
2014-Aug-14 16:33N 39°51' W 073°40'1616.4
2014-Aug-14 15:33N 39°35' W 073°43'2316.3
2014-Aug-14 14:09N 39°12' W 073°47'1016.0
2014-Aug-14 13:30N 39°02' W 073°49'1615.7
2014-Aug-14 12:30N 38°46' W 073°51'1515.5
2014-Aug-14 11:32N 38°31' W 073°54'9216.5
2014-Aug-14 06:00N 37°00' W 074°06'   320 / 251018.0 5.4 26.018.721.0
2014-Aug-10 06:00N 23°36' W 074°36'38716.1 090 / 171018.0 5.4 0.528.023.925.0
2014-Aug-09 06:00N 17°12' W 075°30'18415.3 090 / 261014.8 5.4 1.528.025.326.0
2014-Aug-08 18:00N 14°30' W 077°00'   090 / 281013.2 5.4 1.530.026.028.0

Dump ship's entire track history